.
WxDataArchive / Data Records for 2010-10-05
2010-10-04 October 2010 2010-10-06

Data Records for Tuesday, 05 October 2010

Time	Temp	Chill	HIndex	Humid	Dewpt	 Wind 	HiWind	WindDir	Rain 	Barom 
-----	----	-----	------	-----	-----	------	------	-------	-----	----- 
00:00	44.1	44.1	44.1	74	36.4	0	0	---	0.00	30.322 
00:05	44.1	44.1	44.1	75	36.7	0	0	---	0.00	30.322 
00:10	43.9	43.9	43.9	75	36.5	0	0	---	0.00	30.322 
00:15	43.8	43.8	43.8	75	36.4	0	0	---	0.00	30.320 
00:20	43.8	43.8	43.8	75	36.4	0	0	---	0.00	30.320 
00:25	43.8	43.8	43.8	76	36.7	0	1	270	0.00	30.320 
00:30	43.8	43.8	43.8	76	36.7	0	0	---	0.00	30.309 
00:35	43.9	43.9	43.9	75	36.5	0	0	---	0.00	30.309 
00:40	43.8	43.8	43.8	76	36.7	0	0	---	0.00	30.309 
00:45	43.6	43.6	43.6	76	36.5	0	0	---	0.00	30.309 
00:50	43.5	43.5	43.5	76	36.4	0	0	---	0.00	30.309 
00:55	43.2	43.2	43.2	77	36.5	0	0	---	0.00	30.309 
01:00	42.9	42.9	42.9	77	36.2	0	0	---	0.00	30.306 
01:05	42.8	42.8	42.8	78	36.4	0	0	---	0.00	30.306 
01:10	42.8	42.8	42.8	79	36.7	0	0	---	0.00	30.306 
01:15	42.9	42.9	42.9	79	36.8	0	1	270	0.00	30.296 
01:20	43.1	43.1	43.1	79	37.0	0	0	---	0.00	30.296 
01:25	43.1	43.1	43.1	78	36.7	0	0	---	0.00	30.296 
01:30	42.9	42.9	42.9	79	36.8	0	0	---	0.00	30.302 
01:35	42.6	42.6	42.6	79	36.6	0	0	---	0.00	30.302 
01:40	42.5	42.5	42.5	79	36.5	0	0	---	0.00	30.302 
01:45	42.2	42.2	42.2	80	36.5	0	0	---	0.00	30.304 
01:50	41.9	41.9	41.9	80	36.2	0	0	---	0.00	30.304 
01:55	41.6	41.6	41.6	81	36.2	0	0	---	0.00	30.304 
02:00	41.3	41.3	41.3	81	35.9	0	0	---	0.00	30.305 
02:05	41.1	41.1	41.1	82	36.0	0	0	---	0.00	30.305 
02:10	40.8	40.8	40.8	82	35.7	0	0	---	0.00	30.305 
02:15	40.6	40.6	40.6	83	35.8	0	0	---	0.00	30.309 
02:20	40.5	40.5	40.5	84	36.1	0	0	---	0.00	30.309 
02:25	40.3	40.3	40.3	84	35.9	0	0	---	0.00	30.309 
02:30	40.2	40.2	40.2	84	35.8	0	0	---	0.00	30.316 
02:35	40.1	40.1	40.1	85	36.0	0	0	---	0.00	30.316 
02:40	40.1	40.1	40.1	85	36.0	0	0	---	0.00	30.316 
02:45	40.1	40.1	40.1	85	36.0	0	0	---	0.00	30.311 
02:50	39.9	39.9	39.9	86	36.1	0	0	---	0.00	30.311 
02:55	39.8	39.8	39.8	86	36.0	0	0	---	0.00	30.311 
03:00	39.6	39.6	39.6	86	35.8	0	0	---	0.00	30.319 
03:05	39.8	39.8	39.8	87	36.3	0	0	---	0.00	30.319 
03:10	39.8	39.8	39.8	87	36.3	0	0	---	0.00	30.319 
03:15	39.8	39.8	39.8	88	36.5	0	0	---	0.00	30.319 
03:20	39.8	39.8	39.8	88	36.5	0	0	---	0.00	30.319 
03:25	39.8	39.8	39.8	88	36.5	0	0	---	0.00	30.319 
03:30	39.8	39.8	39.8	88	36.5	0	0	---	0.00	30.317 
03:35	39.9	39.9	39.9	88	36.6	0	0	---	0.00	30.317 
03:40	40.2	40.2	40.2	88	36.9	0	0	---	0.00	30.317 
03:45	40.5	40.5	40.5	88	37.2	0	0	---	0.00	30.313 
03:50	40.6	40.6	40.6	88	37.3	0	0	---	0.00	30.313 
03:55	40.8	40.8	40.8	87	37.2	0	1	270	0.00	30.313 
04:00	40.9	40.9	40.9	87	37.3	0	0	---	0.00	30.307 
04:05	41.1	41.1	41.1	86	37.2	0	0	---	0.00	30.307 
04:10	41.1	41.1	41.1	86	37.2	0	0	---	0.00	30.307 
04:15	41.2	41.2	41.2	85	37.0	0	1	270	0.00	30.306 
04:20	41.2	41.2	41.2	85	37.0	0	1	270	0.00	30.306 
04:25	41.2	41.2	41.2	85	37.0	0	0	---	0.00	30.306 
04:30	41.3	41.3	41.3	85	37.1	0	0	---	0.00	30.306 
04:35	41.5	41.5	41.5	85	37.3	0	1	270	0.00	30.306 
04:40	41.6	41.6	41.6	85	37.4	0	1	270	0.00	30.306 
04:45	41.6	41.6	41.6	85	37.4	0	1	270	0.00	30.305 
04:50	41.6	41.6	41.6	85	37.4	0	0	---	0.00	30.305 
04:55	41.6	41.6	41.6	85	37.4	0	0	---	0.00	30.305 
05:00	41.6	41.6	41.6	85	37.4	0	0	---	0.00	30.306 
05:05	41.8	41.8	41.8	85	37.6	0	0	---	0.00	30.306 
05:10	41.8	41.8	41.8	85	37.6	0	0	---	0.00	30.306 
05:15	41.9	41.9	41.9	85	37.7	0	0	---	0.00	30.313 
05:20	41.9	41.9	41.9	85	37.7	0	0	---	0.00	30.313 
05:25	41.9	41.9	41.9	84	37.4	0	0	---	0.00	30.313 
05:30	42.1	42.1	42.1	84	37.6	0	1	270	0.00	30.313 
05:35	42.1	42.1	42.1	84	37.6	0	1	270	0.00	30.313 
05:40	42.2	42.2	42.2	84	37.7	0	0	---	0.00	30.313 
05:45	42.2	42.2	42.2	84	37.7	0	0	---	0.00	30.319 
05:50	42.2	42.2	42.2	84	37.7	0	0	---	0.00	30.319 
05:55	42.3	42.3	42.3	84	37.8	0	0	---	0.00	30.319 
06:00	42.3	42.3	42.3	83	37.5	0	0	---	0.00	30.320 
06:05	42.5	42.5	42.5	83	37.7	0	1	270	0.00	30.320 
06:10	42.6	42.6	42.6	82	37.5	0	0	---	0.00	30.320 
06:15	42.9	42.9	42.9	82	37.8	0	0	---	0.00	30.320 
06:20	43.1	43.1	43.1	81	37.7	0	1	270	0.00	30.320 
06:25	43.3	43.3	43.3	80	37.6	0	1	270	0.00	30.320 
06:30	43.5	43.5	43.5	80	37.7	0	1	270	0.00	30.322 
06:35	43.6	43.6	43.6	79	37.5	0	1	270	0.00	30.322 
06:40	43.8	43.8	43.8	79	37.7	0	0	---	0.00	30.322 
06:45	43.9	43.9	43.9	78	37.5	0	0	---	0.00	30.323 
06:50	44.1	44.1	44.1	78	37.7	0	1	270	0.00	30.323 
06:55	44.1	44.1	44.1	77	37.4	0	1	270	0.00	30.323 
07:00	44.2	44.2	44.2	77	37.5	0	0	---	0.00	30.322 
07:05	44.3	44.3	44.3	77	37.6	0	0	---	0.00	30.322 
07:10	44.3	44.3	44.3	77	37.6	0	1	270	0.00	30.322 
07:15	44.3	44.3	44.3	77	37.6	0	0	---	0.00	30.331 
07:20	44.3	44.3	44.3	77	37.6	0	0	---	0.00	30.331 
07:25	44.3	44.3	44.3	77	37.6	0	0	---	0.00	30.331 
07:30	44.3	44.3	44.3	77	37.6	0	0	---	0.00	30.337 
07:35	44.2	44.2	44.2	77	37.5	0	0	---	0.00	30.337 
07:40	44.1	44.1	44.1	77	37.4	0	0	---	0.00	30.337 
07:45	43.9	43.9	43.9	78	37.5	0	0	---	0.00	30.338 
07:50	43.8	43.8	43.8	78	37.4	0	0	---	0.00	30.338 
07:55	43.8	43.8	43.8	78	37.4	0	0	---	0.00	30.338 
08:00	43.6	43.6	43.6	79	37.5	0	0	---	0.00	30.341 
08:05	43.5	43.5	43.5	79	37.4	0	0	---	0.00	30.341 
08:10	43.5	43.5	43.5	79	37.4	0	0	---	0.00	30.341 
08:15	43.5	43.5	43.5	79	37.4	0	0	---	0.00	30.352 
08:20	43.5	43.5	43.5	80	37.7	0	0	---	0.00	30.352 
08:25	43.5	43.5	43.5	80	37.7	0	0	---	0.00	30.352 
08:30	43.5	43.5	43.5	80	37.7	0	0	---	0.00	30.359 
08:35	43.5	43.5	43.5	80	37.7	0	0	---	0.00	30.359 
08:40	43.8	43.8	43.8	80	38.0	0	1	270	0.00	30.359 
08:45	44.2	44.2	44.2	79	38.1	0	1	270	0.00	30.357 
08:50	44.5	44.5	44.5	79	38.4	0	1	270	0.00	30.357 
08:55	44.6	44.6	44.6	78	38.2	0	1	270	0.00	30.357 
09:00	44.8	44.8	44.8	78	38.4	0	1	270	0.00	30.357 
09:05	44.9	44.9	44.9	77	38.1	0	1	270	0.00	30.357 
09:10	45.1	45.1	45.1	77	38.3	0	1	270	0.00	30.357 
09:15	45.1	45.1	45.1	77	38.3	0	0	---	0.00	30.361 
09:20	45.2	45.2	45.2	77	38.4	0	1	270	0.00	30.361 
09:25	45.4	45.4	45.4	77	38.6	0	1	270	0.00	30.361 
09:30	45.7	45.7	45.7	77	38.9	0	1	270	0.00	30.362 
09:35	46.0	46.0	46.0	77	39.2	0	0	---	0.00	30.362 
09:40	46.4	46.4	46.4	77	39.6	0	1	270	0.00	30.362 
09:45	47.1	47.1	47.1	76	39.9	0	1	270	0.00	30.362 
09:50	47.9	47.9	47.9	74	40.0	0	1	270	0.00	30.362 
09:55	48.6	48.6	48.6	73	40.3	0	2	270	0.00	30.362 
10:00	49.4	49.4	49.4	71	40.4	0	2	270	0.00	30.358 
10:05	49.9	49.9	49.9	69	40.1	1	4	270	0.00	30.358 
10:10	50.4	50.4	50.4	67	39.9	1	2	270	0.00	30.358 
10:15	51.3	51.3	51.3	65	39.9	1	3	292	0.00	30.368 
10:20	52.3	52.3	52.3	64	40.5	1	4	292	0.00	30.368 
10:25	52.9	52.9	52.9	63	40.7	1	4	315	0.00	30.368 
10:30	53.6	53.6	53.6	61	40.5	1	3	292	0.00	30.357 
10:35	54.2	54.2	54.2	59	40.2	1	3	292	0.00	30.357 
10:40	54.5	54.5	54.5	57	39.6	1	3	338	0.00	30.357 
10:45	54.8	54.8	54.8	56	39.4	1	4	338	0.00	30.354 
10:50	54.8	54.8	54.8	56	39.4	1	3	292	0.00	30.354 
10:55	54.5	54.5	54.5	54	38.2	1	4	292	0.00	30.354 
11:00	54.5	54.5	54.5	56	39.1	1	4	292	0.00	30.356 
11:05	54.8	54.8	54.8	55	38.9	1	4	292	0.00	30.356 
11:10	55.3	55.3	55.3	54	38.9	1	5	270	0.00	30.356 
11:15	55.9	55.9	55.9	53	39.0	1	4	292	0.00	30.358 
11:20	56.7	56.7	56.7	53	39.8	1	5	292	0.00	30.358 
11:25	56.7	56.7	56.7	51	38.8	1	6	0	0.00	30.358 
11:30	56.9	56.9	56.9	53	39.9	1	3	315	0.00	30.362 
11:35	57.3	57.3	57.3	50	38.8	1	3	112	0.00	30.362 
11:40	57.2	57.2	57.2	50	38.7	1	4	292	0.00	30.362 
11:45	57.2	57.2	57.2	47	37.2	2	5	292	0.00	30.353 
11:50	57.3	57.3	57.3	48	37.8	1	4	315	0.00	30.353 
11:55	57.3	57.3	57.3	48	37.8	0	1	315	0.00	30.353 
12:00	57.8	57.8	57.8	48	38.2	1	4	315	0.00	30.353 
12:05	58.3	58.3	58.3	45	37.1	1	5	0	0.00	30.353 
12:10	58.3	58.3	58.3	47	38.2	1	4	292	0.00	30.353 
12:15	58.9	58.9	58.9	46	38.2	1	4	292	0.00	30.350 
12:20	59.3	59.3	59.3	44	37.4	0	2	0	0.00	30.350 
12:25	59.3	59.3	59.3	41	35.6	1	3	315	0.00	30.350 
12:30	59.5	59.5	59.5	35	31.8	2	7	315	0.00	30.342 
12:35	59.8	59.8	59.8	37	33.5	1	3	270	0.00	30.342 
12:40	60.5	60.5	60.5	33	31.3	0	3	45	0.00	30.342 
12:45	61.2	61.2	61.2	33	31.9	1	4	68	0.00	30.336 
12:50	61.8	61.8	61.8	27	27.5	1	4	270	0.00	30.336 
12:55	61.6	61.6	61.6	27	27.3	1	4	270	0.00	30.336 
13:00	61.8	61.8	61.8	29	29.2	1	4	270	0.00	30.334 
13:05	62.3	62.3	62.3	27	27.9	1	3	270	0.00	30.334 
13:10	62.7	62.7	62.7	26	27.3	1	6	90	0.00	30.334 
13:15	62.6	62.6	62.6	25	26.3	1	3	338	0.00	30.329 
13:20	62.4	62.4	62.4	26	27.1	1	3	22	0.00	30.329 
13:25	62.7	62.7	62.7	26	27.3	1	4	292	0.00	30.329 
13:30	62.7	62.7	62.7	27	28.2	1	5	315	0.00	30.321 
13:35	62.9	62.9	62.9	27	28.4	1	4	270	0.00	30.321 
13:40	62.9	62.9	62.9	28	29.3	1	3	315	0.00	30.321 
13:45	62.9	62.9	62.9	27	28.4	2	5	315	0.00	30.316 
13:50	62.9	62.9	62.9	27	28.4	2	4	315	0.00	30.316 
13:55	63.1	63.1	63.1	28	29.5	1	3	292	0.00	30.316 
14:00	63.2	63.2	63.2	27	28.7	1	4	292	0.00	30.305 
14:05	63.2	63.2	63.2	26	27.7	1	3	315	0.00	30.305 
14:10	63.5	63.5	63.5	26	28.0	1	3	315	0.00	30.305 
14:15	63.9	63.9	63.9	27	29.3	1	4	315	0.00	30.300 
14:20	64.2	64.2	64.2	24	26.7	1	3	315	0.00	30.300 
14:25	64.3	64.3	64.3	25	27.7	1	4	315	0.00	30.300 
14:30	64.3	64.3	64.3	24	26.7	2	4	270	0.00	30.289 
14:35	64.3	64.3	64.3	25	27.7	2	5	270	0.00	30.289 
14:40	64.2	64.2	64.2	24	26.7	1	3	338	0.00	30.289 
14:45	64.2	64.2	64.2	26	28.6	1	3	315	0.00	30.287 
14:50	64.5	64.5	64.5	27	29.8	1	4	315	0.00	30.287 
14:55	64.5	64.5	64.5	25	27.9	3	6	270	0.00	30.287 
15:00	64.5	64.5	64.5	27	29.8	1	3	292	0.00	30.283 
15:05	64.5	64.5	64.5	26	28.9	2	4	338	0.00	30.283 
15:10	64.3	64.3	64.3	26	28.7	2	5	270	0.00	30.283 
15:15	64.7	64.7	64.7	25	28.1	1	5	270	0.00	30.274 
15:20	64.7	64.7	64.7	26	29.0	1	2	315	0.00	30.274 
15:25	64.7	64.7	64.7	27	29.9	1	4	270	0.00	30.274 
15:30	64.8	64.8	64.8	26	29.1	2	6	315	0.00	30.277 
15:35	65.0	65.0	65.0	25	28.3	1	4	315	0.00	30.277 
15:40	65.2	65.2	65.2	28	31.3	1	5	292	0.00	30.277 
15:45	65.3	65.3	65.3	25	28.6	1	3	338	0.00	30.273 
15:50	65.3	65.3	65.3	27	30.5	1	4	90	0.00	30.273 
15:55	65.5	65.5	65.5	28	31.5	1	4	270	0.00	30.273 
16:00	65.3	65.3	65.3	27	30.5	1	3	270	0.00	30.268 
16:05	65.3	65.3	65.3	27	30.5	1	4	270	0.00	30.268 
16:10	65.3	65.3	65.3	27	30.5	2	4	292	0.00	30.268 
16:15	65.2	65.2	65.2	27	30.4	0	3	270	0.00	30.265 
16:20	65.3	65.3	65.3	28	31.4	2	6	315	0.00	30.265 
16:25	65.2	65.2	65.2	28	31.3	1	5	270	0.00	30.265 
16:30	65.3	65.3	65.3	28	31.4	2	5	315	0.00	30.256 
16:35	65.3	65.3	65.3	29	32.2	1	4	292	0.00	30.256 
16:40	65.2	65.2	65.2	28	31.3	2	5	315	0.00	30.256 
16:45	65.2	65.2	65.2	29	32.1	1	4	315	0.00	30.251 
16:50	65.3	65.3	65.3	29	32.2	1	3	315	0.00	30.251 
16:55	65.2	65.2	65.2	28	31.3	1	3	315	0.00	30.251 
17:00	65.0	65.0	65.0	29	32.0	1	3	315	0.00	30.244 
17:05	65.0	65.0	65.0	29	32.0	1	3	292	0.00	30.244 
17:10	65.2	65.2	65.2	28	31.3	2	4	338	0.00	30.244 
17:15	65.2	65.2	65.2	29	32.1	1	5	292	0.00	30.240 
17:20	65.0	65.0	65.0	28	31.1	1	4	292	0.00	30.240 
17:25	64.8	64.8	64.8	29	31.8	1	5	292	0.00	30.240 
17:30	64.8	64.8	64.8	29	31.8	1	2	292	0.00	30.240 
17:35	64.8	64.8	64.8	28	30.9	1	3	292	0.00	30.240 
17:40	64.8	64.8	64.8	28	30.9	1	2	315	0.00	30.240 
17:45	65.0	65.0	65.0	29	32.0	3	6	270	0.00	30.238 
17:50	64.8	64.8	64.8	29	31.8	1	4	292	0.00	30.238 
17:55	64.7	64.7	64.7	29	31.7	1	4	22	0.00	30.238 
18:00	64.7	64.7	64.7	31	33.4	0	2	315	0.00	30.237 
18:05	64.5	64.5	64.5	31	33.2	1	4	315	0.00	30.237 
18:10	64.3	64.3	64.3	31	33.0	1	4	292	0.00	30.237 
18:15	63.9	63.9	63.9	32	33.5	0	2	292	0.00	30.235 
18:20	63.5	63.5	63.5	33	33.9	0	3	292	0.00	30.235 
18:25	63.1	63.1	63.1	33	33.5	1	4	292	0.00	30.235 
18:30	62.7	62.7	62.7	34	33.9	0	1	292	0.00	30.239 
18:35	62.4	62.4	62.4	35	34.4	0	3	292	0.00	30.239 
18:40	62.3	62.3	62.3	35	34.3	0	1	292	0.00	30.239 
18:45	62.1	62.1	62.1	36	34.8	0	1	292	0.00	30.235 
18:50	61.8	61.8	61.8	37	35.3	0	1	292	0.00	30.235 
18:55	61.6	61.6	61.6	37	35.1	0	1	292	0.00	30.235 
19:00	61.5	61.5	61.5	37	35.0	0	0	---	0.00	30.229 
19:05	61.2	61.2	61.2	38	35.4	0	0	---	0.00	30.229 
19:10	60.9	60.9	60.9	38	35.1	0	1	292	0.00	30.229 
19:15	60.5	60.5	60.5	39	35.4	0	0	---	0.00	30.230 
19:20	60.1	60.1	60.1	40	35.7	0	0	---	0.00	30.230 
19:25	59.6	59.6	59.6	41	35.9	0	0	---	0.00	30.230 
19:30	59.0	59.0	59.0	42	35.9	0	0	---	0.00	30.234 
19:35	58.6	58.6	58.6	43	36.2	0	0	---	0.00	30.234 
19:40	58.0	58.0	58.0	46	37.3	0	0	---	0.00	30.234 
19:45	57.3	57.3	57.3	46	36.7	0	0	---	0.00	30.236 
19:50	56.7	56.7	56.7	47	36.7	0	0	---	0.00	30.236 
19:55	56.3	56.3	56.3	47	36.3	0	0	---	0.00	30.236 
20:00	55.7	55.7	55.7	49	36.8	0	0	---	0.00	30.242 
20:05	55.1	55.1	55.1	52	37.8	0	0	---	0.00	30.242 
20:10	54.5	54.5	54.5	54	38.2	0	0	---	0.00	30.242 
20:15	54.4	54.4	54.4	52	37.1	0	1	292	0.00	30.245 
20:20	54.8	54.8	54.8	50	36.5	0	1	292	0.00	30.245 
20:25	55.6	55.6	55.6	48	36.2	0	1	292	0.00	30.245 
20:30	56.2	56.2	56.2	47	36.2	0	1	292	0.00	30.250 
20:35	56.5	56.5	56.5	47	36.5	0	1	292	0.00	30.250 
20:40	56.3	56.3	56.3	47	36.3	0	0	---	0.00	30.250 
20:45	56.3	56.3	56.3	47	36.3	0	1	292	0.00	30.252 
20:50	56.2	56.2	56.2	47	36.2	0	1	292	0.00	30.252 
20:55	56.5	56.5	56.5	46	36.0	0	2	292	0.00	30.252 
21:00	56.5	56.5	56.5	47	36.5	0	1	292	0.00	30.248 
21:05	56.5	56.5	56.5	47	36.5	0	2	292	0.00	30.248 
21:10	56.3	56.3	56.3	48	36.9	0	1	292	0.00	30.248 
21:15	56.3	56.3	56.3	48	36.9	0	1	292	0.00	30.248 
21:20	56.2	56.2	56.2	48	36.8	0	1	292	0.00	30.248 
21:25	55.9	55.9	55.9	49	37.0	0	1	292	0.00	30.248 
21:30	55.6	55.6	55.6	50	37.3	0	1	292	0.00	30.249 
21:35	55.3	55.3	55.3	51	37.5	0	1	292	0.00	30.249 
21:40	55.0	55.0	55.0	51	37.2	0	0	---	0.00	30.249 
21:45	54.7	54.7	54.7	52	37.4	0	0	---	0.00	30.248 
21:50	54.4	54.4	54.4	53	37.6	0	0	---	0.00	30.248 
21:55	54.2	54.2	54.2	53	37.4	0	1	292	0.00	30.248 
22:00	54.1	54.1	54.1	54	37.8	0	1	292	0.00	30.244 
22:05	53.9	53.9	53.9	54	37.6	0	1	292	0.00	30.244 
22:10	53.8	53.8	53.8	55	38.0	0	1	292	0.00	30.244 
22:15	53.6	53.6	53.6	56	38.3	0	1	292	0.00	30.238 
22:20	53.5	53.5	53.5	56	38.2	0	1	292	0.00	30.238 
22:25	53.2	53.2	53.2	57	38.4	0	1	292	0.00	30.238 
22:30	52.9	52.9	52.9	57	38.1	0	0	---	0.00	30.238 
22:35	52.8	52.8	52.8	58	38.4	0	0	---	0.00	30.238 
22:40	52.5	52.5	52.5	58	38.2	0	1	292	0.00	30.238 
22:45	52.2	52.2	52.2	59	38.3	0	1	292	0.00	30.238 
22:50	52.0	52.0	52.0	59	38.1	0	1	292	0.00	30.238 
22:55	51.9	51.9	51.9	60	38.5	0	1	292	0.00	30.238 
23:00	51.7	51.7	51.7	60	38.3	0	1	292	0.00	30.237 
23:05	51.6	51.6	51.6	60	38.2	0	1	292	0.00	30.237 
23:10	51.4	51.4	51.4	61	38.4	0	0	---	0.00	30.237 
23:15	51.3	51.3	51.3	61	38.3	0	1	292	0.00	30.234 
23:20	51.1	51.1	51.1	61	38.1	0	1	292	0.00	30.234 
23:25	51.0	51.0	51.0	62	38.4	0	0	---	0.00	30.234 
23:30	50.8	50.8	50.8	62	38.3	0	1	292	0.00	30.228 
23:35	50.7	50.7	50.7	62	38.2	0	1	292	0.00	30.228 
23:40	50.5	50.5	50.5	63	38.4	0	1	292	0.00	30.228 
23:45	50.5	50.5	50.5	63	38.4	0	1	292	0.00	30.223 
23:50	50.4	50.4	50.4	63	38.3	0	1	292	0.00	30.223 
23:55	50.2	50.2	50.2	64	38.5	0	1	292	0.00	30.223 

CoCoRaHS
IN-AL-39
A2 Web Hosting
Creative Commons License
GoDaddy
search engine by freefind advanced

loaded 2018-11-21 01:03:46 • last modified 2010-11-18 10:43:29
Privacy PolicyDisclaimer
• wx.awcolley.com is powered by PmWiki v.2002016 •
• all content (unless otherwise noted) © 2018 A W Colley